首页
METAR-TAF:

METAR-TAF

机场 :

賓漢頓, 紐約州, 美国

纬度: 42-12-28N, 经度: 075-58-53W, 海拔: 496米

当前天气观测

该预报发布于1小时和6分钟前的17:53 UTC
风速4节,风向多变
温度 -4°C
湿度 54%
气压 1035 hPa
能見度: 16.1公里
天空无云

METAR: KBGM 121753Z VRB04KT 10SM CLR M04/M12 A3055 RMK AO2 SLP374 T10441117 11044 21111 58019

时间: 13:59 (18:59 UTC)

预报

该预报发布于1小时和39分钟前的17:20 UTC
预报有效从12日的 18点(UTC)到 13日的 18点(UTC)
风速6节,风向
能見度: 10公里
散云层高于10000英尺
从 13日的 0600点(UTC)
风速11节,风向
能見度: 10公里
散云层高于20000英尺
从 13日的 1200点(UTC)
风速9节,风向
能見度: 10公里
多云层高于3500英尺
从 13日的 1500点(UTC)
风速10节,风向,有时为18节阵风
能見度: 10公里
多云层高于2500英尺

TAF: KBGM 121720Z 1218/1318 19006KT P6SM SCT100 FM130600 18011KT P6SM SCT200 WS020/20035KT FM131200 17009KT P6SM BKN035 FM131500 18010G18KT P6SM BKN025

超过4000个机场的气象观测和天气预报(METAR&TAF报告)。

可查询的气象台以黄色和红色小点在地图上表示。

将鼠标移到小点上方,可查看气象台名称。

然后点击查看天气观测和预报。

如需切换地图:点击带黑十字的绿色按钮放大地图;点击带横线的绿色按钮缩小地图;或者点击绿色箭头查看邻近地区的地图。


METAR-TAF: